sensor_id;sensor_type;location;lat;lon;timestamp;P1;durP1;ratioP1;P2;durP2;ratioP2
42988;SDS011;28622;43.716;20.668;2022-12-29T00:02:11;60.75;;;31.83;;
42988;SDS011;28622;43.716;20.668;2022-12-29T00:04:38;68.45;;;33.20;;
42988;SDS011;28622;43.716;20.668;2022-12-29T00:07:04;63.30;;;33.38;;
42988;SDS011;28622;43.716;20.668;2022-12-29T00:09:30;74.95;;;38.67;;
42988;SDS011;28622;43.716;20.668;2022-12-29T00:11:56;81.50;;;39.30;;
42988;SDS011;28622;43.716;20.668;2022-12-29T00:14:22;67.30;;;35.83;;
42988;SDS011;28622;43.716;20.668;2022-12-29T00:17:07;73.97;;;36.35;;
42988;SDS011;28622;43.716;20.668;2022-12-29T00:19:32;63.25;;;31.25;;
42988;SDS011;28622;43.716;20.668;2022-12-29T00:22:17;63.00;;;33.33;;
42988;SDS011;28622;43.716;20.668;2022-12-29T00:25:01;61.25;;;33.40;;
42988;SDS011;28622;43.716;20.668;2022-12-29T00:27:47;56.13;;;29.27;;
42988;SDS011;28622;43.716;20.668;2022-12-29T00:30:31;58.25;;;31.48;;
42988;SDS011;28622;43.716;20.668;2022-12-29T00:33:19;78.82;;;38.78;;
42988;SDS011;28622;43.716;20.668;2022-12-29T00:36:09;58.60;;;27.27;;
42988;SDS011;28622;43.716;20.668;2022-12-29T00:38:55;41.92;;;21.25;;
42988;SDS011;28622;43.716;20.668;2022-12-29T00:41:41;34.20;;;19.00;;
42988;SDS011;28622;43.716;20.668;2022-12-29T00:44:25;41.38;;;20.83;;
42988;SDS011;28622;43.716;20.668;2022-12-29T00:46:51;32.67;;;16.85;;
42988;SDS011;28622;43.716;20.668;2022-12-29T00:49:17;36.65;;;17.85;;
42988;SDS011;28622;43.716;20.668;2022-12-29T00:51:59;34.53;;;17.27;;
42988;SDS011;28622;43.716;20.668;2022-12-29T00:54:27;33.60;;;17.83;;
42988;SDS011;28622;43.716;20.668;2022-12-29T00:56:56;31.90;;;16.42;;
42988;SDS011;28622;43.716;20.668;2022-12-29T00:59:22;31.17;;;14.68;;
42988;SDS011;28622;43.716;20.668;2022-12-29T01:01:49;29.63;;;15.73;;
42988;SDS011;28622;43.716;20.668;2022-12-29T01:04:17;30.75;;;17.60;;
42988;SDS011;28622;43.716;20.668;2022-12-29T01:06:43;31.88;;;14.93;;
42988;SDS011;28622;43.716;20.668;2022-12-29T01:09:09;34.60;;;17.58;;
42988;SDS011;28622;43.716;20.668;2022-12-29T01:11:54;33.45;;;16.88;;
42988;SDS011;28622;43.716;20.668;2022-12-29T01:14:20;35.42;;;17.75;;
42988;SDS011;28622;43.716;20.668;2022-12-29T01:16:47;25.42;;;15.38;;
42988;SDS011;28622;43.716;20.668;2022-12-29T01:19:13;31.27;;;15.90;;
42988;SDS011;28622;43.716;20.668;2022-12-29T01:21:39;27.90;;;15.68;;
42988;SDS011;28622;43.716;20.668;2022-12-29T01:24:05;36.08;;;17.15;;
42988;SDS011;28622;43.716;20.668;2022-12-29T01:26:31;27.52;;;16.25;;
42988;SDS011;28622;43.716;20.668;2022-12-29T01:28:57;30.95;;;16.13;;
42988;SDS011;28622;43.716;20.668;2022-12-29T01:31:23;31.80;;;16.48;;
42988;SDS011;28622;43.716;20.668;2022-12-29T01:33:49;30.90;;;17.10;;
42988;SDS011;28622;43.716;20.668;2022-12-29T01:36:15;30.80;;;17.45;;
42988;SDS011;28622;43.716;20.668;2022-12-29T01:38:42;34.58;;;17.33;;
42988;SDS011;28622;43.716;20.668;2022-12-29T01:41:09;33.95;;;18.17;;
42988;SDS011;28622;43.716;20.668;2022-12-29T01:46:43;42.05;;;17.58;;
42988;SDS011;28622;43.716;20.668;2022-12-29T01:51:39;26.42;;;13.85;;
42988;SDS011;28622;43.716;20.668;2022-12-29T01:54:11;31.00;;;16.38;;
42988;SDS011;28622;43.716;20.668;2022-12-29T01:56:46;32.00;;;18.55;;
42988;SDS011;28622;43.716;20.668;2022-12-29T01:59:15;37.65;;;22.13;;
42988;SDS011;28622;43.716;20.668;2022-12-29T02:04:10;52.67;;;28.33;;
42988;SDS011;28622;43.716;20.668;2022-12-29T02:06:39;40.78;;;21.42;;
42988;SDS011;28622;43.716;20.668;2022-12-29T02:09:18;38.63;;;18.23;;
42988;SDS011;28622;43.716;20.668;2022-12-29T02:11:44;33.90;;;18.50;;
42988;SDS011;28622;43.716;20.668;2022-12-29T02:14:11;40.28;;;19.95;;
42988;SDS011;28622;43.716;20.668;2022-12-29T02:16:40;38.45;;;21.55;;
42988;SDS011;28622;43.716;20.668;2022-12-29T02:19:41;36.40;;;18.40;;
42988;SDS011;28622;43.716;20.668;2022-12-29T02:22:30;35.25;;;17.90;;
42988;SDS011;28622;43.716;20.668;2022-12-29T02:39:19;37.28;;;16.85;;
42988;SDS011;28622;43.716;20.668;2022-12-29T02:45:02;40.22;;;17.60;;
42988;SDS011;28622;43.716;20.668;2022-12-29T02:47:56;38.08;;;16.90;;
42988;SDS011;28622;43.716;20.668;2022-12-29T02:53:01;36.20;;;16.58;;
42988;SDS011;28622;43.716;20.668;2022-12-29T02:55:31;33.45;;;16.40;;
42988;SDS011;28622;43.716;20.668;2022-12-29T02:58:30;35.88;;;17.00;;
42988;SDS011;28622;43.716;20.668;2022-12-29T03:12:58;28.35;;;16.17;;
42988;SDS011;28622;43.716;20.668;2022-12-29T03:23:39;41.55;;;17.42;;
42988;SDS011;28622;43.716;20.668;2022-12-29T03:26:08;32.58;;;17.20;;
42988;SDS011;28622;43.716;20.668;2022-12-29T03:28:43;35.58;;;16.52;;
42988;SDS011;28622;43.716;20.668;2022-12-29T03:31:17;36.00;;;18.63;;
42988;SDS011;28622;43.716;20.668;2022-12-29T03:33:44;27.70;;;16.05;;
42988;SDS011;28622;43.716;20.668;2022-12-29T03:36:13;32.83;;;16.08;;
42988;SDS011;28622;43.716;20.668;2022-12-29T03:38:45;41.72;;;16.60;;
42988;SDS011;28622;43.716;20.668;2022-12-29T03:41:17;32.57;;;16.67;;
42988;SDS011;28622;43.716;20.668;2022-12-29T03:43:45;38.00;;;17.55;;
42988;SDS011;28622;43.716;20.668;2022-12-29T03:46:11;43.70;;;17.80;;
42988;SDS011;28622;43.716;20.668;2022-12-29T03:48:37;38.95;;;17.67;;
42988;SDS011;28622;43.716;20.668;2022-12-29T03:51:03;41.33;;;18.88;;
42988;SDS011;28622;43.716;20.668;2022-12-29T03:53:28;48.97;;;18.10;;
42988;SDS011;28622;43.716;20.668;2022-12-29T03:55:54;44.38;;;19.25;;
42988;SDS011;28622;43.716;20.668;2022-12-29T03:58:20;41.75;;;20.17;;
42988;SDS011;28622;43.716;20.668;2022-12-29T04:00:46;40.45;;;18.88;;
42988;SDS011;28622;43.716;20.668;2022-12-29T04:03:11;44.38;;;22.13;;
42988;SDS011;28622;43.716;20.668;2022-12-29T04:05:37;51.33;;;21.70;;
42988;SDS011;28622;43.716;20.668;2022-12-29T04:08:03;50.63;;;25.23;;
42988;SDS011;28622;43.716;20.668;2022-12-29T04:10:28;57.00;;;22.70;;
42988;SDS011;28622;43.716;20.668;2022-12-29T04:12:54;51.13;;;20.50;;
42988;SDS011;28622;43.716;20.668;2022-12-29T04:15:21;41.97;;;18.65;;
42988;SDS011;28622;43.716;20.668;2022-12-29T04:17:49;34.58;;;18.52;;
42988;SDS011;28622;43.716;20.668;2022-12-29T04:20:14;46.97;;;19.48;;
42988;SDS011;28622;43.716;20.668;2022-12-29T04:22:59;41.67;;;19.63;;
42988;SDS011;28622;43.716;20.668;2022-12-29T04:25:26;34.88;;;17.60;;
42988;SDS011;28622;43.716;20.668;2022-12-29T04:27:52;40.92;;;20.38;;
42988;SDS011;28622;43.716;20.668;2022-12-29T04:30:17;38.50;;;18.58;;
42988;SDS011;28622;43.716;20.668;2022-12-29T04:32:43;38.08;;;19.75;;
42988;SDS011;28622;43.716;20.668;2022-12-29T04:35:09;48.25;;;22.90;;
42988;SDS011;28622;43.716;20.668;2022-12-29T04:37:34;38.38;;;20.55;;
42988;SDS011;28622;43.716;20.668;2022-12-29T04:40:00;43.97;;;19.95;;
42988;SDS011;28622;43.716;20.668;2022-12-29T04:42:26;40.50;;;20.77;;
42988;SDS011;28622;43.716;20.668;2022-12-29T04:44:52;35.50;;;19.10;;
42988;SDS011;28622;43.716;20.668;2022-12-29T04:47:17;34.90;;;17.92;;
42988;SDS011;28622;43.716;20.668;2022-12-29T04:49:43;35.70;;;18.52;;
42988;SDS011;28622;43.716;20.668;2022-12-29T04:52:12;36.10;;;19.35;;
42988;SDS011;28622;43.716;20.668;2022-12-29T04:54:38;42.05;;;21.08;;
42988;SDS011;28622;43.716;20.668;2022-12-29T04:57:04;48.92;;;23.83;;
42988;SDS011;28622;43.716;20.668;2022-12-29T04:59:30;44.13;;;20.38;;
42988;SDS011;28622;43.716;20.668;2022-12-29T05:01:56;33.78;;;18.85;;
42988;SDS011;28622;43.716;20.668;2022-12-29T05:04:21;45.53;;;19.60;;
42988;SDS011;28622;43.716;20.668;2022-12-29T05:06:47;54.00;;;19.58;;
42988;SDS011;28622;43.716;20.668;2022-12-29T05:09:13;42.13;;;18.70;;
42988;SDS011;28622;43.716;20.668;2022-12-29T05:11:39;44.80;;;20.38;;
42988;SDS011;28622;43.716;20.668;2022-12-29T05:14:04;41.88;;;19.75;;
42988;SDS011;28622;43.716;20.668;2022-12-29T05:16:30;44.58;;;20.98;;
42988;SDS011;28622;43.716;20.668;2022-12-29T05:18:56;45.45;;;19.75;;
42988;SDS011;28622;43.716;20.668;2022-12-29T05:21:22;40.42;;;20.45;;
42988;SDS011;28622;43.716;20.668;2022-12-29T05:23:47;40.85;;;18.88;;
42988;SDS011;28622;43.716;20.668;2022-12-29T05:26:13;59.42;;;21.30;;
42988;SDS011;28622;43.716;20.668;2022-12-29T05:28:39;41.28;;;21.08;;
42988;SDS011;28622;43.716;20.668;2022-12-29T05:31:05;49.08;;;18.73;;
42988;SDS011;28622;43.716;20.668;2022-12-29T05:33:30;50.03;;;20.90;;
42988;SDS011;28622;43.716;20.668;2022-12-29T05:35:56;44.67;;;17.90;;
42988;SDS011;28622;43.716;20.668;2022-12-29T05:38:22;38.65;;;19.02;;
42988;SDS011;28622;43.716;20.668;2022-12-29T05:40:48;40.20;;;19.55;;
42988;SDS011;28622;43.716;20.668;2022-12-29T05:43:13;36.22;;;18.80;;
42988;SDS011;28622;43.716;20.668;2022-12-29T05:45:39;42.33;;;20.80;;
42988;SDS011;28622;43.716;20.668;2022-12-29T05:48:05;54.92;;;20.60;;
42988;SDS011;28622;43.716;20.668;2022-12-29T05:50:31;59.15;;;25.23;;
42988;SDS011;28622;43.716;20.668;2022-12-29T05:52:56;44.92;;;20.40;;
42988;SDS011;28622;43.716;20.668;2022-12-29T05:55:22;32.95;;;17.90;;
42988;SDS011;28622;43.716;20.668;2022-12-29T05:57:48;45.30;;;19.80;;
42988;SDS011;28622;43.716;20.668;2022-12-29T06:00:13;41.90;;;19.83;;
42988;SDS011;28622;43.716;20.668;2022-12-29T06:02:40;37.28;;;18.35;;
42988;SDS011;28622;43.716;20.668;2022-12-29T06:05:06;33.80;;;17.50;;
42988;SDS011;28622;43.716;20.668;2022-12-29T06:07:32;38.45;;;17.63;;
42988;SDS011;28622;43.716;20.668;2022-12-29T06:09:57;45.45;;;20.38;;
42988;SDS011;28622;43.716;20.668;2022-12-29T06:12:23;48.50;;;20.35;;
42988;SDS011;28622;43.716;20.668;2022-12-29T06:14:49;37.28;;;19.38;;
42988;SDS011;28622;43.716;20.668;2022-12-29T06:17:15;37.10;;;17.30;;
42988;SDS011;28622;43.716;20.668;2022-12-29T06:19:40;37.78;;;18.20;;
42988;SDS011;28622;43.716;20.668;2022-12-29T06:22:06;50.90;;;22.92;;
42988;SDS011;28622;43.716;20.668;2022-12-29T06:24:32;42.85;;;20.60;;
42988;SDS011;28622;43.716;20.668;2022-12-29T06:26:58;44.20;;;21.25;;
42988;SDS011;28622;43.716;20.668;2022-12-29T06:29:23;61.97;;;24.10;;
42988;SDS011;28622;43.716;20.668;2022-12-29T06:31:49;43.25;;;21.98;;
42988;SDS011;28622;43.716;20.668;2022-12-29T06:34:16;40.70;;;19.73;;
42988;SDS011;28622;43.716;20.668;2022-12-29T06:36:41;51.22;;;22.58;;
42988;SDS011;28622;43.716;20.668;2022-12-29T06:39:07;60.60;;;25.88;;
42988;SDS011;28622;43.716;20.668;2022-12-29T06:41:33;69.85;;;30.63;;
42988;SDS011;28622;43.716;20.668;2022-12-29T06:43:59;54.70;;;22.40;;
42988;SDS011;28622;43.716;20.668;2022-12-29T06:46:24;47.65;;;24.80;;
42988;SDS011;28622;43.716;20.668;2022-12-29T06:48:50;48.30;;;20.60;;
42988;SDS011;28622;43.716;20.668;2022-12-29T06:51:16;31.15;;;16.88;;
42988;SDS011;28622;43.716;20.668;2022-12-29T06:53:41;33.17;;;16.60;;
42988;SDS011;28622;43.716;20.668;2022-12-29T06:56:07;42.40;;;20.05;;
42988;SDS011;28622;43.716;20.668;2022-12-29T06:58:33;48.30;;;21.38;;
42988;SDS011;28622;43.716;20.668;2022-12-29T07:00:59;43.85;;;22.80;;
42988;SDS011;28622;43.716;20.668;2022-12-29T07:03:24;56.17;;;21.65;;
42988;SDS011;28622;43.716;20.668;2022-12-29T07:05:50;56.10;;;24.30;;
42988;SDS011;28622;43.716;20.668;2022-12-29T07:08:16;36.00;;;17.23;;
42988;SDS011;28622;43.716;20.668;2022-12-29T07:10:42;45.83;;;19.55;;
42988;SDS011;28622;43.716;20.668;2022-12-29T07:13:07;36.03;;;18.90;;
42988;SDS011;28622;43.716;20.668;2022-12-29T07:15:34;30.80;;;15.77;;
42988;SDS011;28622;43.716;20.668;2022-12-29T07:18:01;54.47;;;28.40;;
42988;SDS011;28622;43.716;20.668;2022-12-29T07:20:28;49.15;;;27.63;;
42988;SDS011;28622;43.716;20.668;2022-12-29T07:22:53;44.92;;;22.30;;
42988;SDS011;28622;43.716;20.668;2022-12-29T07:25:19;42.75;;;23.58;;
42988;SDS011;28622;43.716;20.668;2022-12-29T07:27:45;45.85;;;22.80;;
42988;SDS011;28622;43.716;20.668;2022-12-29T07:30:11;54.92;;;26.65;;
42988;SDS011;28622;43.716;20.668;2022-12-29T07:32:37;48.15;;;24.90;;
42988;SDS011;28622;43.716;20.668;2022-12-29T07:35:03;55.55;;;26.38;;
42988;SDS011;28622;43.716;20.668;2022-12-29T07:37:29;64.53;;;27.65;;
42988;SDS011;28622;43.716;20.668;2022-12-29T07:39:55;62.35;;;31.08;;
42988;SDS011;28622;43.716;20.668;2022-12-29T07:42:20;72.57;;;35.72;;
42988;SDS011;28622;43.716;20.668;2022-12-29T07:44:47;68.07;;;30.85;;
42988;SDS011;28622;43.716;20.668;2022-12-29T07:47:12;53.67;;;26.33;;
42988;SDS011;28622;43.716;20.668;2022-12-29T07:49:38;56.67;;;25.38;;
42988;SDS011;28622;43.716;20.668;2022-12-29T07:52:04;53.25;;;27.98;;
42988;SDS011;28622;43.716;20.668;2022-12-29T07:54:29;53.42;;;26.42;;
42988;SDS011;28622;43.716;20.668;2022-12-29T07:56:56;52.78;;;27.63;;
42988;SDS011;28622;43.716;20.668;2022-12-29T07:59:25;60.40;;;25.45;;
42988;SDS011;28622;43.716;20.668;2022-12-29T08:01:51;53.17;;;27.27;;
42988;SDS011;28622;43.716;20.668;2022-12-29T08:04:17;49.25;;;24.77;;
42988;SDS011;28622;43.716;20.668;2022-12-29T08:06:43;66.78;;;30.40;;
42988;SDS011;28622;43.716;20.668;2022-12-29T08:09:10;61.35;;;29.52;;
42988;SDS011;28622;43.716;20.668;2022-12-29T08:11:36;68.43;;;32.72;;
42988;SDS011;28622;43.716;20.668;2022-12-29T08:14:02;88.45;;;38.90;;
42988;SDS011;28622;43.716;20.668;2022-12-29T08:16:28;80.40;;;38.78;;
42988;SDS011;28622;43.716;20.668;2022-12-29T08:18:54;83.40;;;41.70;;
42988;SDS011;28622;43.716;20.668;2022-12-29T08:21:20;88.72;;;42.67;;
42988;SDS011;28622;43.716;20.668;2022-12-29T08:23:47;77.47;;;39.10;;
42988;SDS011;28622;43.716;20.668;2022-12-29T08:26:12;87.78;;;43.17;;
42988;SDS011;28622;43.716;20.668;2022-12-29T08:28:38;84.35;;;47.00;;
42988;SDS011;28622;43.716;20.668;2022-12-29T08:31:04;87.38;;;44.58;;
42988;SDS011;28622;43.716;20.668;2022-12-29T08:33:30;73.57;;;36.05;;
42988;SDS011;28622;43.716;20.668;2022-12-29T08:36:02;71.55;;;36.65;;
42988;SDS011;28622;43.716;20.668;2022-12-29T08:38:30;74.78;;;38.78;;
42988;SDS011;28622;43.716;20.668;2022-12-29T08:40:56;64.18;;;37.25;;
42988;SDS011;28622;43.716;20.668;2022-12-29T08:43:23;76.78;;;38.85;;
42988;SDS011;28622;43.716;20.668;2022-12-29T08:45:49;58.00;;;32.85;;
42988;SDS011;28622;43.716;20.668;2022-12-29T08:48:15;62.10;;;33.90;;
42988;SDS011;28622;43.716;20.668;2022-12-29T08:50:44;58.45;;;31.65;;
42988;SDS011;28622;43.716;20.668;2022-12-29T08:53:10;67.72;;;34.67;;
42988;SDS011;28622;43.716;20.668;2022-12-29T08:55:36;55.58;;;26.77;;
42988;SDS011;28622;43.716;20.668;2022-12-29T08:58:02;54.80;;;28.27;;
42988;SDS011;28622;43.716;20.668;2022-12-29T09:00:28;66.25;;;31.58;;
42988;SDS011;28622;43.716;20.668;2022-12-29T09:02:54;63.83;;;30.70;;
42988;SDS011;28622;43.716;20.668;2022-12-29T09:05:20;64.95;;;33.92;;
42988;SDS011;28622;43.716;20.668;2022-12-29T09:07:46;59.85;;;32.72;;
42988;SDS011;28622;43.716;20.668;2022-12-29T09:10:11;59.80;;;30.33;;
42988;SDS011;28622;43.716;20.668;2022-12-29T09:12:37;56.20;;;31.58;;
42988;SDS011;28622;43.716;20.668;2022-12-29T09:15:03;50.13;;;27.17;;
42988;SDS011;28622;43.716;20.668;2022-12-29T09:17:30;44.00;;;24.73;;
42988;SDS011;28622;43.716;20.668;2022-12-29T09:20:15;44.40;;;22.42;;
42988;SDS011;28622;43.716;20.668;2022-12-29T09:22:43;50.03;;;23.92;;
42988;SDS011;28622;43.716;20.668;2022-12-29T09:25:09;44.00;;;22.95;;
42988;SDS011;28622;43.716;20.668;2022-12-29T09:27:36;27.92;;;16.35;;
42988;SDS011;28622;43.716;20.668;2022-12-29T09:30:03;25.45;;;15.27;;
42988;SDS011;28622;43.716;20.668;2022-12-29T09:32:31;25.55;;;14.40;;
42988;SDS011;28622;43.716;20.668;2022-12-29T09:34:57;26.77;;;15.18;;
42988;SDS011;28622;43.716;20.668;2022-12-29T09:37:23;32.17;;;16.50;;
42988;SDS011;28622;43.716;20.668;2022-12-29T09:39:49;31.92;;;16.75;;
42988;SDS011;28622;43.716;20.668;2022-12-29T09:42:25;29.90;;;17.95;;
42988;SDS011;28622;43.716;20.668;2022-12-29T09:47:38;39.20;;;20.73;;
42988;SDS011;28622;43.716;20.668;2022-12-29T09:53:04;42.00;;;20.50;;
42988;SDS011;28622;43.716;20.668;2022-12-29T09:55:40;40.33;;;21.17;;
42988;SDS011;28622;43.716;20.668;2022-12-29T10:03:19;43.20;;;21.63;;
42988;SDS011;28622;43.716;20.668;2022-12-29T10:05:49;39.95;;;19.38;;
42988;SDS011;28622;43.716;20.668;2022-12-29T10:11:06;30.80;;;15.63;;
42988;SDS011;28622;43.716;20.668;2022-12-29T10:16:18;19.35;;;10.00;;
42988;SDS011;28622;43.716;20.668;2022-12-29T10:24:15;20.23;;;11.18;;
42988;SDS011;28622;43.716;20.668;2022-12-29T10:26:43;21.67;;;10.88;;
42988;SDS011;28622;43.716;20.668;2022-12-29T10:29:16;17.58;;;9.30;;
42988;SDS011;28622;43.716;20.668;2022-12-29T10:32:12;19.25;;;9.18;;
42988;SDS011;28622;43.716;20.668;2022-12-29T10:34:45;19.70;;;10.20;;
42988;SDS011;28622;43.716;20.668;2022-12-29T10:37:23;17.05;;;9.23;;
42988;SDS011;28622;43.716;20.668;2022-12-29T10:40:13;18.48;;;10.48;;
42988;SDS011;28622;43.716;20.668;2022-12-29T10:42:45;22.67;;;11.77;;
42988;SDS011;28622;43.716;20.668;2022-12-29T10:45:15;19.88;;;11.13;;
42988;SDS011;28622;43.716;20.668;2022-12-29T10:50:45;24.40;;;13.83;;
42988;SDS011;28622;43.716;20.668;2022-12-29T10:53:21;28.67;;;14.15;;
42988;SDS011;28622;43.716;20.668;2022-12-29T10:55:50;28.50;;;13.90;;
42988;SDS011;28622;43.716;20.668;2022-12-29T10:58:17;30.20;;;13.85;;
42988;SDS011;28622;43.716;20.668;2022-12-29T11:00:48;29.60;;;15.40;;
42988;SDS011;28622;43.716;20.668;2022-12-29T11:06:11;27.13;;;14.15;;
42988;SDS011;28622;43.716;20.668;2022-12-29T11:09:00;32.85;;;16.13;;
42988;SDS011;28622;43.716;20.668;2022-12-29T11:11:34;31.45;;;16.90;;
42988;SDS011;28622;43.716;20.668;2022-12-29T11:14:20;36.00;;;17.98;;
42988;SDS011;28622;43.716;20.668;2022-12-29T11:16:59;37.05;;;19.05;;
42988;SDS011;28622;43.716;20.668;2022-12-29T11:19:27;36.92;;;18.20;;
42988;SDS011;28622;43.716;20.668;2022-12-29T11:21:56;27.73;;;16.45;;
42988;SDS011;28622;43.716;20.668;2022-12-29T11:24:47;29.38;;;16.27;;
42988;SDS011;28622;43.716;20.668;2022-12-29T11:27:15;38.05;;;18.58;;
42988;SDS011;28622;43.716;20.668;2022-12-29T11:29:43;40.97;;;20.23;;
42988;SDS011;28622;43.716;20.668;2022-12-29T11:32:20;38.80;;;21.83;;
42988;SDS011;28622;43.716;20.668;2022-12-29T11:34:50;39.20;;;18.85;;
42988;SDS011;28622;43.716;20.668;2022-12-29T11:37:36;38.92;;;19.02;;
42988;SDS011;28622;43.716;20.668;2022-12-29T11:40:05;32.97;;;17.35;;
42988;SDS011;28622;43.716;20.668;2022-12-29T11:42:41;32.55;;;17.20;;
42988;SDS011;28622;43.716;20.668;2022-12-29T11:45:18;35.40;;;18.15;;
42988;SDS011;28622;43.716;20.668;2022-12-29T11:47:45;35.05;;;18.63;;
42988;SDS011;28622;43.716;20.668;2022-12-29T11:50:19;68.63;;;31.27;;
42988;SDS011;28622;43.716;20.668;2022-12-29T11:52:56;36.35;;;18.63;;
42988;SDS011;28622;43.716;20.668;2022-12-29T11:55:32;33.25;;;18.77;;
42988;SDS011;28622;43.716;20.668;2022-12-29T11:58:00;41.95;;;17.80;;
42988;SDS011;28622;43.716;20.668;2022-12-29T12:00:30;38.47;;;18.65;;
42988;SDS011;28622;43.716;20.668;2022-12-29T12:05:47;35.38;;;16.67;;
42988;SDS011;28622;43.716;20.668;2022-12-29T12:14:00;46.65;;;21.38;;
42988;SDS011;28622;43.716;20.668;2022-12-29T12:16:41;42.60;;;21.15;;
42988;SDS011;28622;43.716;20.668;2022-12-29T12:22:07;81.72;;;34.20;;
42988;SDS011;28622;43.716;20.668;2022-12-29T12:24:48;51.50;;;26.02;;
42988;SDS011;28622;43.716;20.668;2022-12-29T12:27:30;64.03;;;28.70;;
42988;SDS011;28622;43.716;20.668;2022-12-29T12:30:09;65.38;;;27.65;;
42988;SDS011;28622;43.716;20.668;2022-12-29T12:35:34;51.47;;;22.75;;
42988;SDS011;28622;43.716;20.668;2022-12-29T12:41:24;33.43;;;15.57;;
42988;SDS011;28622;43.716;20.668;2022-12-29T12:51:39;24.02;;;14.50;;
42988;SDS011;28622;43.716;20.668;2022-12-29T13:00:19;32.50;;;16.52;;
42988;SDS011;28622;43.716;20.668;2022-12-29T13:05:38;30.65;;;14.45;;
42988;SDS011;28622;43.716;20.668;2022-12-29T13:08:49;24.42;;;12.60;;
42988;SDS011;28622;43.716;20.668;2022-12-29T13:17:23;21.42;;;10.00;;
42988;SDS011;28622;43.716;20.668;2022-12-29T13:25:50;21.15;;;10.73;;
42988;SDS011;28622;43.716;20.668;2022-12-29T13:28:29;21.05;;;10.38;;
42988;SDS011;28622;43.716;20.668;2022-12-29T13:31:24;21.73;;;11.77;;
42988;SDS011;28622;43.716;20.668;2022-12-29T13:34:16;23.13;;;10.50;;
42988;SDS011;28622;43.716;20.668;2022-12-29T13:36:54;23.08;;;12.60;;
42988;SDS011;28622;43.716;20.668;2022-12-29T13:39:28;25.95;;;11.68;;
42988;SDS011;28622;43.716;20.668;2022-12-29T13:42:00;22.02;;;10.70;;
42988;SDS011;28622;43.716;20.668;2022-12-29T13:44:28;18.63;;;10.95;;
42988;SDS011;28622;43.716;20.668;2022-12-29T13:47:24;22.00;;;12.68;;
42988;SDS011;28622;43.716;20.668;2022-12-29T13:49:52;21.63;;;11.25;;
42988;SDS011;28622;43.716;20.668;2022-12-29T13:52:40;28.05;;;12.48;;
42988;SDS011;28622;43.716;20.668;2022-12-29T14:08:48;37.92;;;18.65;;
42988;SDS011;28622;43.716;20.668;2022-12-29T14:11:15;25.58;;;12.10;;
42988;SDS011;28622;43.716;20.668;2022-12-29T14:13:45;22.60;;;11.27;;
42988;SDS011;28622;43.716;20.668;2022-12-29T14:18:52;35.40;;;17.75;;
42988;SDS011;28622;43.716;20.668;2022-12-29T14:21:20;50.28;;;22.83;;
42988;SDS011;28622;43.716;20.668;2022-12-29T14:23:49;63.85;;;25.80;;
42988;SDS011;28622;43.716;20.668;2022-12-29T14:28:57;55.33;;;24.58;;
42988;SDS011;28622;43.716;20.668;2022-12-29T14:32:00;46.53;;;21.50;;
42988;SDS011;28622;43.716;20.668;2022-12-29T14:34:27;55.85;;;23.00;;
42988;SDS011;28622;43.716;20.668;2022-12-29T14:36:55;59.38;;;24.83;;
42988;SDS011;28622;43.716;20.668;2022-12-29T14:44:34;54.33;;;22.48;;
42988;SDS011;28622;43.716;20.668;2022-12-29T14:47:25;45.15;;;22.02;;
42988;SDS011;28622;43.716;20.668;2022-12-29T14:52:31;47.45;;;23.27;;
42988;SDS011;28622;43.716;20.668;2022-12-29T14:54:59;48.20;;;21.38;;
42988;SDS011;28622;43.716;20.668;2022-12-29T14:58:01;47.00;;;23.58;;
42988;SDS011;28622;43.716;20.668;2022-12-29T15:00:31;50.00;;;21.85;;
42988;SDS011;28622;43.716;20.668;2022-12-29T15:05:33;71.15;;;29.98;;
42988;SDS011;28622;43.716;20.668;2022-12-29T15:08:05;73.70;;;33.78;;
42988;SDS011;28622;43.716;20.668;2022-12-29T15:10:39;118.23;;;54.67;;
42988;SDS011;28622;43.716;20.668;2022-12-29T15:13:14;139.27;;;63.67;;
42988;SDS011;28622;43.716;20.668;2022-12-29T15:15:50;105.80;;;50.03;;
42988;SDS011;28622;43.716;20.668;2022-12-29T15:18:28;109.35;;;49.50;;
42988;SDS011;28622;43.716;20.668;2022-12-29T15:21:05;98.85;;;43.83;;
42988;SDS011;28622;43.716;20.668;2022-12-29T15:23:32;63.30;;;28.33;;
42988;SDS011;28622;43.716;20.668;2022-12-29T15:26:03;65.40;;;31.65;;
42988;SDS011;28622;43.716;20.668;2022-12-29T15:28:38;75.80;;;33.80;;
42988;SDS011;28622;43.716;20.668;2022-12-29T15:31:13;64.70;;;32.25;;
42988;SDS011;28622;43.716;20.668;2022-12-29T15:33:45;57.65;;;27.50;;
42988;SDS011;28622;43.716;20.668;2022-12-29T15:36:14;55.28;;;27.13;;
42988;SDS011;28622;43.716;20.668;2022-12-29T15:38:48;57.65;;;26.92;;
42988;SDS011;28622;43.716;20.668;2022-12-29T15:41:49;61.90;;;28.55;;
42988;SDS011;28622;43.716;20.668;2022-12-29T15:47:20;108.03;;;52.25;;
42988;SDS011;28622;43.716;20.668;2022-12-29T15:49:52;119.88;;;54.58;;
42988;SDS011;28622;43.716;20.668;2022-12-29T15:52:31;141.23;;;57.08;;
42988;SDS011;28622;43.716;20.668;2022-12-29T15:54:58;147.50;;;63.10;;
42988;SDS011;28622;43.716;20.668;2022-12-29T15:57:28;134.82;;;59.38;;
42988;SDS011;28622;43.716;20.668;2022-12-29T15:59:57;123.38;;;56.70;;
42988;SDS011;28622;43.716;20.668;2022-12-29T16:02:25;118.10;;;50.53;;
42988;SDS011;28622;43.716;20.668;2022-12-29T16:04:51;110.97;;;49.58;;
42988;SDS011;28622;43.716;20.668;2022-12-29T16:07:24;102.95;;;45.25;;
42988;SDS011;28622;43.716;20.668;2022-12-29T16:09:56;93.70;;;41.63;;
42988;SDS011;28622;43.716;20.668;2022-12-29T16:12:34;93.80;;;43.35;;
42988;SDS011;28622;43.716;20.668;2022-12-29T16:15:06;84.50;;;41.03;;
42988;SDS011;28622;43.716;20.668;2022-12-29T16:17:47;87.47;;;42.72;;
42988;SDS011;28622;43.716;20.668;2022-12-29T16:20:17;99.43;;;45.03;;
42988;SDS011;28622;43.716;20.668;2022-12-29T16:22:50;90.90;;;42.13;;
42988;SDS011;28622;43.716;20.668;2022-12-29T16:25:20;104.57;;;46.15;;
42988;SDS011;28622;43.716;20.668;2022-12-29T16:27:49;100.68;;;46.92;;
42988;SDS011;28622;43.716;20.668;2022-12-29T16:32:47;66.45;;;30.60;;
42988;SDS011;28622;43.716;20.668;2022-12-29T16:37:48;74.72;;;34.75;;
42988;SDS011;28622;43.716;20.668;2022-12-29T16:40:32;75.10;;;36.22;;
42988;SDS011;28622;43.716;20.668;2022-12-29T16:43:02;94.85;;;43.05;;
42988;SDS011;28622;43.716;20.668;2022-12-29T16:50:39;96.70;;;44.90;;
42988;SDS011;28622;43.716;20.668;2022-12-29T16:53:16;87.50;;;41.78;;
42988;SDS011;28622;43.716;20.668;2022-12-29T16:55:46;89.22;;;42.22;;
42988;SDS011;28622;43.716;20.668;2022-12-29T16:58:16;87.55;;;38.78;;
42988;SDS011;28622;43.716;20.668;2022-12-29T17:00:46;85.28;;;39.40;;
42988;SDS011;28622;43.716;20.668;2022-12-29T17:03:13;97.68;;;42.45;;
42988;SDS011;28622;43.716;20.668;2022-12-29T17:05:39;98.78;;;42.97;;
42988;SDS011;28622;43.716;20.668;2022-12-29T17:08:18;97.43;;;46.08;;
42988;SDS011;28622;43.716;20.668;2022-12-29T17:10:48;116.05;;;48.83;;
42988;SDS011;28622;43.716;20.668;2022-12-29T17:13:38;108.78;;;55.53;;